Hyundai Dominion — A8IK7 — position and weather

sailwx.info

Track history (hours):
 
Tides and Currents Weather Stations Pressure Air Temp Water Temp Dewpoint Dewpoint Depression Visibility Wind Speed Wind Dir Waves Ship Positions

Hyundai Dominion

Last reported at 2015-Mar-18 17:24 UTC. Time now 2015-Mar-29 23:47 UTC.
Position S 29°40' E 031°41'.
Warning: this ship's position is 11 days out of date.

Length 304 m; draft 9.5 m.

Type: Ship (hazmat cat A). MMSI: 636090990.

Date/timePositionNaut miles runAvg speedWind from/ knotsBaromVisibWave heightAir tempDewpointWater temp
2015-Mar-18 17:24S 29°40' E 031°41'1315.8
2015-Mar-18 16:33S 29°44' E 031°26'1716.7
2015-Mar-18 15:33S 29°49' E 031°08'6 5.8
2015-Mar-18 14:33S 29°52' E 031°02'0 0.0
2015-Mar-18 13:33S 29°52' E 031°02'0 0.0
2015-Mar-18 12:33S 29°52' E 031°02'0 0.0
2015-Mar-18 11:33S 29°52' E 031°02'0 0.0
2015-Mar-18 10:33S 29°52' E 031°02'0 0.4
2015-Mar-18 09:33S 29°53' E 031°02'10 9.6
2015-Mar-18 08:33S 29°45' E 031°10'3 2.9
2015-Mar-18 07:33S 29°43' E 031°10'0 0.0
2015-Mar-18 06:33S 29°43' E 031°10'4 4.0
2015-Mar-18 05:33S 29°47' E 031°10'1111.3
2015-Mar-18 04:33S 29°57' E 031°06'8 7.8
2015-Mar-18 03:32S 30°05' E 031°03'1515.5
2015-Mar-18 02:33S 30°19' E 030°57'7314.5
2015-Mar-17 21:31S 31°20' E 030°11'14214.2
2015-Mar-17 11:31S 33°02' E 028°14'6314.5
2015-Mar-17 07:10S 33°39' E 027°13'6616.8
2015-Mar-17 03:14S 33°55' E 025°56'14 0.3
2015-Mar-15 05:32S 33°48' E 025°41'0 0.0
2015-Mar-15 01:20S 33°48' E 025°41'0 0.0
2015-Mar-14 23:32S 33°48' E 025°41'  
2015-Mar-09 03:17S 33°52' E 025°41'0 0.0
2015-Mar-09 01:17S 33°52' E 025°41'17 4.3
2015-Mar-08 21:20S 34°07' E 025°32'  
Track history (hours):
 
Tides and Currents Weather Stations Pressure Air Temp Water Temp Dewpoint Dewpoint Depression Visibility Wind Speed Wind Dir Waves Ship Positions

Hyundai Dominion

Last reported at 2015-Mar-18 17:24 UTC. Time now 2015-Mar-29 23:47 UTC.
Position S 29°40' E 031°41'.
Warning: this ship's position is 11 days out of date.

Length 304 m; draft 9.5 m.

Type: Ship (hazmat cat A). MMSI: 636090990.

Date/timePositionNaut miles runAvg speedWind from/ knotsBaromVisibWave heightAir tempDewpointWater temp
2015-Mar-18 17:24S 29°40' E 031°41'1315.8
2015-Mar-18 16:33S 29°44' E 031°26'1716.7
2015-Mar-18 15:33S 29°49' E 031°08'6 5.8
2015-Mar-18 14:33S 29°52' E 031°02'0 0.0
2015-Mar-18 13:33S 29°52' E 031°02'0 0.0
2015-Mar-18 12:33S 29°52' E 031°02'0 0.0
2015-Mar-18 11:33S 29°52' E 031°02'0 0.0
2015-Mar-18 10:33S 29°52' E 031°02'0 0.4
2015-Mar-18 09:33S 29°53' E 031°02'10 9.6
2015-Mar-18 08:33S 29°45' E 031°10'3 2.9
2015-Mar-18 07:33S 29°43' E 031°10'0 0.0
2015-Mar-18 06:33S 29°43' E 031°10'4 4.0
2015-Mar-18 05:33S 29°47' E 031°10'1111.3
2015-Mar-18 04:33S 29°57' E 031°06'8 7.8
2015-Mar-18 03:32S 30°05' E 031°03'1515.5
2015-Mar-18 02:33S 30°19' E 030°57'7314.5
2015-Mar-17 21:31S 31°20' E 030°11'14214.2
2015-Mar-17 11:31S 33°02' E 028°14'6314.5
2015-Mar-17 07:10S 33°39' E 027°13'6616.8
2015-Mar-17 03:14S 33°55' E 025°56'14 0.3
2015-Mar-15 05:32S 33°48' E 025°41'0 0.0
2015-Mar-15 01:20S 33°48' E 025°41'0 0.0
2015-Mar-14 23:32S 33°48' E 025°41'  
2015-Mar-09 03:17S 33°52' E 025°41'0 0.0
2015-Mar-09 01:17S 33°52' E 025°41'17 4.3
2015-Mar-08 21:20S 34°07' E 025°32'  

Dump ship's entire track history